WMKM/MKZ METAR and TAF weather

Enter ICAO airport designator
Station Type Date Time Source
WMKM METAR 2019/08/23 15:00 UTC NOAA

WMKM 231500Z VRB03KT 9999 FEW030 SCT130 BKN280 29/25 Q1012


Station Type Date Time Source
WMKM Decoded METAR 2019/08/23 15:00 UTC NOAA

Station name not available
Aug 23, 2019 - 11:00 AM EDT / 2019.08.23 1500 UTC
Wind: Variable at 3 MPH (3 KT):0
Visibility: greater than 7 mile(s):0
Sky conditions: mostly cloudy
Temperature: 84 F (29 C)
Dew Point: 77 F (25 C)
Relative Humidity: 79%
Pressure (altimeter): 29.88 in. Hg (1012 hPa)
ob: WMKM 231500Z VRB03KT 9999 FEW030 SCT130 BKN280 29/25 Q1012
cycle: 15

Station Type Date Time Source
WMKM TAF 2019/08/23 12:00 UTC NOAA

TAF WMKM 231100Z 2312/2412 VRB03KT 9999 FEW028
BECMG 2400/2402 3000 HZ FEW027

Example: see airport list